Hovedside
METAR-TAF:

METAR-TAF

Lufthavner :

Sundsvall-Härnösand, Sverige

Sundsvall Timrå lufthavn

breddegrad: 62-32N, lengdegrad: 017-27E, høyde over havet: 4 m

Gjeldene værobservasjon

Denne rapporten ble laget for 1 time og 16 minutter siden, klokken 09:50 UTC
Vind 7 kt fra Nord-nordvest, skiftende mellom Vest og Nord-nordøst
Temperatur 8°C
Luftfuktighet 29%
Trykk 1006 hPa
Sikt 10 km eller mer
ingen skyer under 1500 m og ingen bygeskyer

METAR: ESNN 270950Z 34007KT 280V020 CAVOK 08/M09 Q1006

Tid: 13:06 (11:06 UTC)

Varsel

Denne rapporten ble laget for 2 timer og 36 minutter siden, klokken 08:30 UTC
Varsel gyldig fra 27. klokken 09 UTC til 27. klokken 18 UTC
Vind 6 kt fra Nord-nordvest
Sikt 10 km eller mer
ingen skyer under 1500 m og ingen bygeskyer
Sannsynlighet 40%
fra 27. klokken 12 UTC til 27. klokken 18 UTC
Sikt: 4000 m
lette snøbyger, regn

TAF: ESNN 270830Z 2709/2718 34006KT CAVOK PROB40 2712/2718 4000 -SHSNRA

Værobservasjoner og værvarsel for over 4000 flyplasser (METAR- og TAF-rapporter).

Tilgjengelige stasjoner er representert av de røde og gule prikkene på kartet.

Hold musepekeren over prikken for å se navnet på stasjonen.

Klikk så for å se værobservasjoner og -varsler.

For å forandre kartet kan du klikke på den grønne knappen med svart kryss for å zoome inn, på den grønne knappen med strek for å zoome ut, eller på de grønne pilene for å se tilstøtende kart.


METAR-TAF: